Kezdőlap
METAR-TAF:

METAR-TAF

Repülőterek :

Radom-Sadków

Radom, Lengyelország

földrajzi szélesség: 51-23-21N, földrajzi hosszúság: 21-12-49E, magasság: 186 m

Jelenlegi meteorológiai megfigyelések

A jelentés 3 órával és 26 perccel ezelõtt készült, 18:00 UTC
Keleti szél 5 kt
Hőmérséklet 21°C
Páratartalom 64%
Légköri nyomás 1022 hPa
Látótávolság 10 km, vagy több
felhőtlen 1500 m magasságban, és nincs gomolyfelhõ

METAR: EPRA 271800Z 09005KT CAVOK 21/14 Q1022

Idő: 23:26 (21:26 UTC)


TAF: hiányzik

Meteorológiai megfigyelések és előrejelzések több, mint 4000 repülőtéren (METAR és TAF jelentéseket).

A térképen piros és sárga pontok jelzik az elérhető meteorológiai állomásokat.

Mozgassa az egeret a pont fölött, hogy megjelenjen az állomás neve.

Azután kattintson az időjárási megfigyelések és előrejelzések megtekintéséhez.

A térkép megváltoztatása: kattintson a fekete keresztel jelölt zöld gombra ráközelítéshez, a vonallal jelölt zöld gombra távolításhoz, vagy a zöld nyilakra a szomszédos térképek eléréséhez.


METAR-TAF: